sensor_id;sensor_type;location;lat;lon;timestamp;P1;durP1;ratioP1;P2;durP2;ratioP2
10088;SDS011;51898;49.864;8.550;2023-09-30T00:00:59;6.80;;;3.00;;
10088;SDS011;51898;49.864;8.550;2023-09-30T00:04:00;7.67;;;2.83;;
10088;SDS011;51898;49.864;8.550;2023-09-30T00:07:05;4.90;;;3.27;;
10088;SDS011;51898;49.864;8.550;2023-09-30T00:10:06;6.33;;;3.03;;
10088;SDS011;51898;49.864;8.550;2023-09-30T00:13:08;9.90;;;3.90;;
10088;SDS011;51898;49.864;8.550;2023-09-30T00:16:10;7.60;;;3.70;;
10088;SDS011;51898;49.864;8.550;2023-09-30T00:19:12;7.40;;;3.60;;
10088;SDS011;51898;49.864;8.550;2023-09-30T00:22:14;5.13;;;3.83;;
10088;SDS011;51898;49.864;8.550;2023-09-30T00:25:16;7.40;;;3.80;;
10088;SDS011;51898;49.864;8.550;2023-09-30T00:28:17;4.83;;;3.63;;
10088;SDS011;51898;49.864;8.550;2023-09-30T00:31:20;6.07;;;4.00;;
10088;SDS011;51898;49.864;8.550;2023-09-30T00:34:22;8.57;;;4.33;;
10088;SDS011;51898;49.864;8.550;2023-09-30T00:37:23;6.07;;;4.40;;
10088;SDS011;51898;49.864;8.550;2023-09-30T00:40:25;7.53;;;3.80;;
10088;SDS011;51898;49.864;8.550;2023-09-30T00:43:27;7.57;;;4.10;;
10088;SDS011;51898;49.864;8.550;2023-09-30T00:46:29;11.30;;;4.50;;
10088;SDS011;51898;49.864;8.550;2023-09-30T00:49:33;7.07;;;3.90;;
10088;SDS011;51898;49.864;8.550;2023-09-30T00:52:35;6.60;;;4.07;;
10088;SDS011;51898;49.864;8.550;2023-09-30T00:55:37;9.13;;;4.83;;
10088;SDS011;51898;49.864;8.550;2023-09-30T00:58:39;10.03;;;4.07;;
10088;SDS011;51898;49.864;8.550;2023-09-30T01:01:42;10.53;;;4.50;;
10088;SDS011;51898;49.864;8.550;2023-09-30T01:04:45;6.90;;;4.20;;
10088;SDS011;51898;49.864;8.550;2023-09-30T01:07:46;10.67;;;4.90;;
10088;SDS011;51898;49.864;8.550;2023-09-30T01:10:48;7.40;;;4.20;;
10088;SDS011;51898;49.864;8.550;2023-09-30T01:13:50;6.57;;;4.20;;
10088;SDS011;51898;49.864;8.550;2023-09-30T01:16:53;6.20;;;4.40;;
10088;SDS011;51898;49.864;8.550;2023-09-30T01:19:57;9.47;;;4.63;;
10088;SDS011;51898;49.864;8.550;2023-09-30T01:23:04;5.67;;;4.13;;
10088;SDS011;51898;49.864;8.550;2023-09-30T01:26:08;4.83;;;4.20;;
10088;SDS011;51898;49.864;8.550;2023-09-30T01:29:10;7.90;;;3.43;;
10088;SDS011;51898;49.864;8.550;2023-09-30T01:32:12;4.80;;;3.90;;
10088;SDS011;51898;49.864;8.550;2023-09-30T01:35:15;6.70;;;4.10;;
10088;SDS011;51898;49.864;8.550;2023-09-30T01:38:16;9.87;;;4.53;;
10088;SDS011;51898;49.864;8.550;2023-09-30T01:41:18;6.40;;;3.70;;
10088;SDS011;51898;49.864;8.550;2023-09-30T01:44:20;11.83;;;4.13;;
10088;SDS011;51898;49.864;8.550;2023-09-30T01:47:21;7.17;;;4.30;;
10088;SDS011;51898;49.864;8.550;2023-09-30T01:50:23;8.37;;;4.40;;
10088;SDS011;51898;49.864;8.550;2023-09-30T01:53:25;7.43;;;4.33;;
10088;SDS011;51898;49.864;8.550;2023-09-30T01:56:27;9.17;;;4.67;;
10088;SDS011;51898;49.864;8.550;2023-09-30T01:59:28;9.10;;;4.40;;
10088;SDS011;51898;49.864;8.550;2023-09-30T02:02:30;7.13;;;4.90;;
10088;SDS011;51898;49.864;8.550;2023-09-30T02:05:32;7.63;;;5.30;;
10088;SDS011;51898;49.864;8.550;2023-09-30T02:08:34;6.80;;;4.40;;
10088;SDS011;51898;49.864;8.550;2023-09-30T02:11:38;10.67;;;5.60;;
10088;SDS011;51898;49.864;8.550;2023-09-30T02:14:43;9.83;;;5.30;;
10088;SDS011;51898;49.864;8.550;2023-09-30T02:17:44;11.97;;;5.20;;
10088;SDS011;51898;49.864;8.550;2023-09-30T02:20:47;7.23;;;4.43;;
10088;SDS011;51898;49.864;8.550;2023-09-30T02:23:49;6.83;;;4.67;;
10088;SDS011;51898;49.864;8.550;2023-09-30T02:26:56;8.57;;;4.87;;
10088;SDS011;51898;49.864;8.550;2023-09-30T02:29:59;8.53;;;4.40;;
10088;SDS011;51898;49.864;8.550;2023-09-30T02:33:01;8.50;;;5.00;;
10088;SDS011;51898;49.864;8.550;2023-09-30T02:36:08;11.70;;;4.97;;
10088;SDS011;51898;49.864;8.550;2023-09-30T02:39:10;12.63;;;4.70;;
10088;SDS011;51898;49.864;8.550;2023-09-30T02:42:11;13.20;;;4.87;;
10088;SDS011;51898;49.864;8.550;2023-09-30T02:45:15;10.73;;;5.37;;
10088;SDS011;51898;49.864;8.550;2023-09-30T02:48:18;9.80;;;5.40;;
10088;SDS011;51898;49.864;8.550;2023-09-30T02:51:20;5.40;;;4.50;;
10088;SDS011;51898;49.864;8.550;2023-09-30T02:54:22;9.57;;;5.90;;
10088;SDS011;51898;49.864;8.550;2023-09-30T02:57:25;14.43;;;5.43;;
10088;SDS011;51898;49.864;8.550;2023-09-30T03:00:28;10.10;;;5.17;;
10088;SDS011;51898;49.864;8.550;2023-09-30T03:03:34;10.23;;;5.67;;
10088;SDS011;51898;49.864;8.550;2023-09-30T03:06:36;10.03;;;5.60;;
10088;SDS011;51898;49.864;8.550;2023-09-30T03:09:40;9.73;;;6.00;;
10088;SDS011;51898;49.864;8.550;2023-09-30T03:12:42;8.30;;;4.70;;
10088;SDS011;51898;49.864;8.550;2023-09-30T03:15:44;13.27;;;6.10;;
10088;SDS011;51898;49.864;8.550;2023-09-30T03:18:45;7.90;;;4.97;;
10088;SDS011;51898;49.864;8.550;2023-09-30T03:21:47;11.77;;;4.73;;
10088;SDS011;51898;49.864;8.550;2023-09-30T03:24:49;11.43;;;5.70;;
10088;SDS011;51898;49.864;8.550;2023-09-30T03:27:51;11.90;;;5.33;;
10088;SDS011;51898;49.864;8.550;2023-09-30T03:30:52;9.30;;;5.10;;
10088;SDS011;51898;49.864;8.550;2023-09-30T03:33:54;9.73;;;5.53;;
10088;SDS011;51898;49.864;8.550;2023-09-30T03:36:56;11.97;;;5.37;;
10088;SDS011;51898;49.864;8.550;2023-09-30T03:40:00;10.50;;;5.60;;
10088;SDS011;51898;49.864;8.550;2023-09-30T03:43:13;8.63;;;5.10;;
10088;SDS011;51898;49.864;8.550;2023-09-30T03:46:15;7.57;;;5.00;;
10088;SDS011;51898;49.864;8.550;2023-09-30T03:49:18;8.43;;;5.40;;
10088;SDS011;51898;49.864;8.550;2023-09-30T03:52:21;7.87;;;4.43;;
10088;SDS011;51898;49.864;8.550;2023-09-30T03:55:24;14.90;;;6.03;;
10088;SDS011;51898;49.864;8.550;2023-09-30T03:58:26;7.10;;;5.20;;
10088;SDS011;51898;49.864;8.550;2023-09-30T04:01:28;11.70;;;5.77;;
10088;SDS011;51898;49.864;8.550;2023-09-30T04:04:30;10.27;;;5.60;;
10088;SDS011;51898;49.864;8.550;2023-09-30T04:07:32;12.77;;;5.80;;
10088;SDS011;51898;49.864;8.550;2023-09-30T04:10:34;10.30;;;4.70;;
10088;SDS011;51898;49.864;8.550;2023-09-30T04:13:36;12.00;;;5.70;;
10088;SDS011;51898;49.864;8.550;2023-09-30T04:16:38;6.90;;;4.50;;
10088;SDS011;51898;49.864;8.550;2023-09-30T04:19:40;6.30;;;4.40;;
10088;SDS011;51898;49.864;8.550;2023-09-30T04:22:44;9.03;;;5.00;;
10088;SDS011;51898;49.864;8.550;2023-09-30T04:25:50;11.07;;;4.93;;
10088;SDS011;51898;49.864;8.550;2023-09-30T04:28:52;8.00;;;4.50;;
10088;SDS011;51898;49.864;8.550;2023-09-30T04:31:54;9.63;;;5.10;;
10088;SDS011;51898;49.864;8.550;2023-09-30T04:34:57;8.33;;;5.20;;
10088;SDS011;51898;49.864;8.550;2023-09-30T04:37:58;9.57;;;5.07;;
10088;SDS011;51898;49.864;8.550;2023-09-30T04:41:02;8.90;;;5.13;;
10088;SDS011;51898;49.864;8.550;2023-09-30T04:44:04;10.63;;;5.73;;
10088;SDS011;51898;49.864;8.550;2023-09-30T04:47:07;8.43;;;5.57;;
10088;SDS011;51898;49.864;8.550;2023-09-30T04:50:09;12.27;;;5.20;;
10088;SDS011;51898;49.864;8.550;2023-09-30T04:53:12;11.23;;;5.60;;
10088;SDS011;51898;49.864;8.550;2023-09-30T04:56:14;13.97;;;6.00;;
10088;SDS011;51898;49.864;8.550;2023-09-30T04:59:16;9.80;;;5.47;;
10088;SDS011;51898;49.864;8.550;2023-09-30T05:02:18;17.23;;;5.87;;
10088;SDS011;51898;49.864;8.550;2023-09-30T05:05:19;17.40;;;6.10;;
10088;SDS011;51898;49.864;8.550;2023-09-30T05:08:22;14.73;;;5.97;;
10088;SDS011;51898;49.864;8.550;2023-09-30T05:11:24;16.43;;;6.20;;
10088;SDS011;51898;49.864;8.550;2023-09-30T05:14:26;12.23;;;6.57;;
10088;SDS011;51898;49.864;8.550;2023-09-30T05:17:30;12.03;;;5.43;;
10088;SDS011;51898;49.864;8.550;2023-09-30T05:20:33;15.70;;;6.07;;
10088;SDS011;51898;49.864;8.550;2023-09-30T05:23:37;11.80;;;6.50;;
10088;SDS011;51898;49.864;8.550;2023-09-30T05:26:39;13.27;;;5.60;;
10088;SDS011;51898;49.864;8.550;2023-09-30T05:29:41;12.20;;;6.27;;
10088;SDS011;51898;49.864;8.550;2023-09-30T05:32:44;11.73;;;6.30;;
10088;SDS011;51898;49.864;8.550;2023-09-30T05:35:48;10.83;;;6.37;;
10088;SDS011;51898;49.864;8.550;2023-09-30T05:38:49;11.60;;;6.03;;
10088;SDS011;51898;49.864;8.550;2023-09-30T05:41:51;9.77;;;5.50;;
10088;SDS011;51898;49.864;8.550;2023-09-30T05:44:53;14.93;;;6.80;;
10088;SDS011;51898;49.864;8.550;2023-09-30T05:47:55;12.13;;;6.70;;
10088;SDS011;51898;49.864;8.550;2023-09-30T05:50:58;8.10;;;5.60;;
10088;SDS011;51898;49.864;8.550;2023-09-30T05:54:00;10.73;;;5.60;;
10088;SDS011;51898;49.864;8.550;2023-09-30T05:57:02;13.03;;;6.50;;
10088;SDS011;51898;49.864;8.550;2023-09-30T06:00:04;12.60;;;6.57;;
10088;SDS011;51898;49.864;8.550;2023-09-30T06:03:26;10.70;;;6.20;;
10088;SDS011;51898;49.864;8.550;2023-09-30T06:06:30;18.00;;;6.90;;
10088;SDS011;51898;49.864;8.550;2023-09-30T06:09:32;12.27;;;5.97;;
10088;SDS011;51898;49.864;8.550;2023-09-30T06:12:34;15.87;;;7.00;;
10088;SDS011;51898;49.864;8.550;2023-09-30T06:15:39;11.53;;;6.60;;
10088;SDS011;51898;49.864;8.550;2023-09-30T06:18:42;11.67;;;6.60;;
10088;SDS011;51898;49.864;8.550;2023-09-30T06:21:43;12.67;;;6.70;;
10088;SDS011;51898;49.864;8.550;2023-09-30T06:24:45;9.90;;;5.80;;
10088;SDS011;51898;49.864;8.550;2023-09-30T06:27:47;11.27;;;6.80;;
10088;SDS011;51898;49.864;8.550;2023-09-30T06:30:50;13.63;;;6.50;;
10088;SDS011;51898;49.864;8.550;2023-09-30T06:33:52;11.10;;;6.37;;
10088;SDS011;51898;49.864;8.550;2023-09-30T06:36:53;15.80;;;6.53;;
10088;SDS011;51898;49.864;8.550;2023-09-30T06:39:55;10.63;;;6.33;;
10088;SDS011;51898;49.864;8.550;2023-09-30T06:42:57;15.40;;;6.03;;
10088;SDS011;51898;49.864;8.550;2023-09-30T06:45:59;15.07;;;6.53;;
10088;SDS011;51898;49.864;8.550;2023-09-30T06:49:06;13.10;;;7.33;;
10088;SDS011;51898;49.864;8.550;2023-09-30T06:52:08;13.00;;;6.70;;
10088;SDS011;51898;49.864;8.550;2023-09-30T06:55:10;11.90;;;6.57;;
10088;SDS011;51898;49.864;8.550;2023-09-30T06:58:15;12.93;;;6.70;;
10088;SDS011;51898;49.864;8.550;2023-09-30T07:01:22;12.60;;;6.90;;
10088;SDS011;51898;49.864;8.550;2023-09-30T07:04:23;15.37;;;7.60;;
10088;SDS011;51898;49.864;8.550;2023-09-30T07:07:25;11.63;;;7.00;;
10088;SDS011;51898;49.864;8.550;2023-09-30T07:10:27;10.60;;;6.90;;
10088;SDS011;51898;49.864;8.550;2023-09-30T07:13:30;13.30;;;7.17;;
10088;SDS011;51898;49.864;8.550;2023-09-30T07:16:32;12.63;;;6.37;;
10088;SDS011;51898;49.864;8.550;2023-09-30T07:19:34;14.47;;;6.30;;
10088;SDS011;51898;49.864;8.550;2023-09-30T07:22:37;11.20;;;6.60;;
10088;SDS011;51898;49.864;8.550;2023-09-30T07:25:56;14.80;;;6.10;;
10088;SDS011;51898;49.864;8.550;2023-09-30T07:28:58;17.13;;;6.00;;
10088;SDS011;51898;49.864;8.550;2023-09-30T07:32:00;11.60;;;6.00;;
10088;SDS011;51898;49.864;8.550;2023-09-30T07:35:02;10.93;;;5.47;;
10088;SDS011;51898;49.864;8.550;2023-09-30T07:38:04;13.10;;;6.53;;
10088;SDS011;51898;49.864;8.550;2023-09-30T07:41:06;11.00;;;6.73;;
10088;SDS011;51898;49.864;8.550;2023-09-30T07:44:07;12.60;;;6.20;;
10088;SDS011;51898;49.864;8.550;2023-09-30T07:47:10;13.70;;;7.30;;
10088;SDS011;51898;49.864;8.550;2023-09-30T07:50:13;12.30;;;6.00;;
10088;SDS011;51898;49.864;8.550;2023-09-30T07:53:15;11.80;;;6.03;;
10088;SDS011;51898;49.864;8.550;2023-09-30T07:56:16;12.33;;;6.50;;
10088;SDS011;51898;49.864;8.550;2023-09-30T07:59:18;12.00;;;5.80;;
10088;SDS011;51898;49.864;8.550;2023-09-30T08:02:20;11.17;;;6.40;;
10088;SDS011;51898;49.864;8.550;2023-09-30T08:05:23;11.37;;;6.33;;
10088;SDS011;51898;49.864;8.550;2023-09-30T08:08:25;13.17;;;6.33;;
10088;SDS011;51898;49.864;8.550;2023-09-30T08:11:27;8.53;;;6.13;;
10088;SDS011;51898;49.864;8.550;2023-09-30T08:14:31;13.33;;;6.87;;
10088;SDS011;51898;49.864;8.550;2023-09-30T08:17:33;13.20;;;7.50;;
10088;SDS011;51898;49.864;8.550;2023-09-30T08:20:35;15.67;;;6.77;;
10088;SDS011;51898;49.864;8.550;2023-09-30T08:23:37;11.53;;;6.13;;
10088;SDS011;51898;49.864;8.550;2023-09-30T08:26:42;16.70;;;6.80;;
10088;SDS011;51898;49.864;8.550;2023-09-30T08:29:44;11.47;;;5.83;;
10088;SDS011;51898;49.864;8.550;2023-09-30T08:32:45;10.23;;;5.33;;
10088;SDS011;51898;49.864;8.550;2023-09-30T08:35:47;11.00;;;5.77;;
10088;SDS011;51898;49.864;8.550;2023-09-30T08:38:52;12.83;;;6.37;;
10088;SDS011;51898;49.864;8.550;2023-09-30T08:41:54;10.00;;;5.30;;
10088;SDS011;51898;49.864;8.550;2023-09-30T08:44:57;14.40;;;5.70;;
10088;SDS011;51898;49.864;8.550;2023-09-30T08:47:59;11.40;;;6.10;;
10088;SDS011;51898;49.864;8.550;2023-09-30T08:51:06;10.80;;;6.10;;
10088;SDS011;51898;49.864;8.550;2023-09-30T08:54:09;14.80;;;6.40;;
10088;SDS011;51898;49.864;8.550;2023-09-30T08:57:11;12.37;;;5.80;;
10088;SDS011;51898;49.864;8.550;2023-09-30T09:00:14;11.60;;;5.13;;
10088;SDS011;51898;49.864;8.550;2023-09-30T09:03:18;12.20;;;5.87;;
10088;SDS011;51898;49.864;8.550;2023-09-30T09:06:21;10.53;;;5.67;;
10088;SDS011;51898;49.864;8.550;2023-09-30T09:09:24;9.20;;;5.47;;
10088;SDS011;51898;49.864;8.550;2023-09-30T09:12:25;8.43;;;5.30;;
10088;SDS011;51898;49.864;8.550;2023-09-30T09:15:28;10.90;;;4.90;;
10088;SDS011;51898;49.864;8.550;2023-09-30T09:18:31;9.77;;;4.67;;
10088;SDS011;51898;49.864;8.550;2023-09-30T09:21:39;10.70;;;4.23;;
10088;SDS011;51898;49.864;8.550;2023-09-30T09:24:55;12.13;;;4.70;;
10088;SDS011;51898;49.864;8.550;2023-09-30T09:28:00;7.40;;;4.30;;
10088;SDS011;51898;49.864;8.550;2023-09-30T09:31:02;9.70;;;4.40;;
10088;SDS011;51898;49.864;8.550;2023-09-30T09:34:16;11.57;;;4.00;;
10088;SDS011;51898;49.864;8.550;2023-09-30T09:37:19;11.27;;;3.70;;
10088;SDS011;51898;49.864;8.550;2023-09-30T09:40:28;5.77;;;3.60;;
10088;SDS011;51898;49.864;8.550;2023-09-30T09:43:32;10.50;;;3.67;;
10088;SDS011;51898;49.864;8.550;2023-09-30T09:46:35;8.77;;;3.47;;
10088;SDS011;51898;49.864;8.550;2023-09-30T09:49:37;6.70;;;3.50;;
10088;SDS011;51898;49.864;8.550;2023-09-30T09:52:40;9.37;;;3.37;;
10088;SDS011;51898;49.864;8.550;2023-09-30T09:55:44;5.43;;;3.30;;
10088;SDS011;51898;49.864;8.550;2023-09-30T09:58:47;8.97;;;3.80;;
10088;SDS011;51898;49.864;8.550;2023-09-30T10:01:51;8.33;;;3.23;;
10088;SDS011;51898;49.864;8.550;2023-09-30T10:04:53;7.07;;;3.47;;
10088;SDS011;51898;49.864;8.550;2023-09-30T10:07:59;7.23;;;3.70;;
10088;SDS011;51898;49.864;8.550;2023-09-30T10:11:04;8.77;;;3.37;;
10088;SDS011;51898;49.864;8.550;2023-09-30T10:14:07;9.27;;;3.60;;
10088;SDS011;51898;49.864;8.550;2023-09-30T10:17:15;5.10;;;3.53;;
10088;SDS011;51898;49.864;8.550;2023-09-30T10:20:18;10.17;;;3.77;;
10088;SDS011;51898;49.864;8.550;2023-09-30T10:23:29;9.00;;;3.40;;
10088;SDS011;51898;49.864;8.550;2023-09-30T10:26:34;8.20;;;3.73;;
10088;SDS011;51898;49.864;8.550;2023-09-30T10:29:39;8.67;;;4.97;;
10088;SDS011;51898;49.864;8.550;2023-09-30T10:35:58;6.63;;;3.90;;
10088;SDS011;51898;49.864;8.550;2023-09-30T10:39:02;6.43;;;3.87;;
10088;SDS011;51898;49.864;8.550;2023-09-30T10:42:04;8.43;;;4.47;;
10088;SDS011;51898;49.864;8.550;2023-09-30T10:45:06;6.67;;;4.57;;
10088;SDS011;51898;49.864;8.550;2023-09-30T10:51:29;6.87;;;3.73;;
10088;SDS011;51898;49.864;8.550;2023-09-30T10:54:32;9.07;;;4.37;;
10088;SDS011;51898;49.864;8.550;2023-09-30T10:57:34;7.23;;;4.60;;
10088;SDS011;51898;49.864;8.550;2023-09-30T11:00:36;6.13;;;3.70;;
10088;SDS011;51898;49.864;8.550;2023-09-30T11:03:40;6.67;;;4.23;;
10088;SDS011;51898;49.864;8.550;2023-09-30T11:06:43;6.57;;;4.27;;
10088;SDS011;51898;49.864;8.550;2023-09-30T11:09:46;9.30;;;4.27;;
10088;SDS011;51898;49.864;8.550;2023-09-30T11:12:54;11.77;;;4.47;;
10088;SDS011;51898;49.864;8.550;2023-09-30T11:16:00;8.67;;;4.30;;
10088;SDS011;51898;49.864;8.550;2023-09-30T11:19:03;6.03;;;3.60;;
10088;SDS011;51898;49.864;8.550;2023-09-30T11:22:05;8.83;;;4.20;;
10088;SDS011;51898;49.864;8.550;2023-09-30T11:25:14;8.87;;;5.10;;
10088;SDS011;51898;49.864;8.550;2023-09-30T11:28:17;13.37;;;5.13;;
10088;SDS011;51898;49.864;8.550;2023-09-30T11:31:20;8.10;;;4.60;;
10088;SDS011;51898;49.864;8.550;2023-09-30T11:34:30;7.50;;;4.30;;
10088;SDS011;51898;49.864;8.550;2023-09-30T11:37:34;6.30;;;3.63;;
10088;SDS011;51898;49.864;8.550;2023-09-30T11:40:35;6.17;;;4.00;;
10088;SDS011;51898;49.864;8.550;2023-09-30T11:43:37;5.80;;;3.50;;
10088;SDS011;51898;49.864;8.550;2023-09-30T11:46:49;6.43;;;3.77;;
10088;SDS011;51898;49.864;8.550;2023-09-30T11:49:55;5.50;;;4.03;;
10088;SDS011;51898;49.864;8.550;2023-09-30T11:52:57;7.77;;;4.20;;
10088;SDS011;51898;49.864;8.550;2023-09-30T11:56:01;9.03;;;4.17;;
10088;SDS011;51898;49.864;8.550;2023-09-30T11:59:04;6.33;;;3.90;;
10088;SDS011;51898;49.864;8.550;2023-09-30T12:02:05;8.17;;;4.37;;
10088;SDS011;51898;49.864;8.550;2023-09-30T12:05:15;8.23;;;4.50;;
10088;SDS011;51898;49.864;8.550;2023-09-30T12:08:18;13.13;;;4.50;;
10088;SDS011;51898;49.864;8.550;2023-09-30T12:11:20;10.70;;;5.27;;
10088;SDS011;51898;49.864;8.550;2023-09-30T12:14:25;6.03;;;3.80;;
10088;SDS011;51898;49.864;8.550;2023-09-30T12:17:26;4.50;;;3.80;;
10088;SDS011;51898;49.864;8.550;2023-09-30T12:20:28;5.67;;;4.00;;
10088;SDS011;51898;49.864;8.550;2023-09-30T12:23:30;9.30;;;4.13;;
10088;SDS011;51898;49.864;8.550;2023-09-30T12:26:32;5.13;;;3.93;;
10088;SDS011;51898;49.864;8.550;2023-09-30T12:29:34;9.23;;;4.73;;
10088;SDS011;51898;49.864;8.550;2023-09-30T12:32:36;7.03;;;4.20;;
10088;SDS011;51898;49.864;8.550;2023-09-30T12:35:37;8.50;;;4.30;;
10088;SDS011;51898;49.864;8.550;2023-09-30T12:38:39;9.07;;;4.33;;
10088;SDS011;51898;49.864;8.550;2023-09-30T12:41:41;7.20;;;4.27;;
10088;SDS011;51898;49.864;8.550;2023-09-30T12:44:47;8.30;;;4.57;;
10088;SDS011;51898;49.864;8.550;2023-09-30T12:47:48;5.40;;;4.00;;
10088;SDS011;51898;49.864;8.550;2023-09-30T12:50:53;7.40;;;4.47;;
10088;SDS011;51898;49.864;8.550;2023-09-30T12:53:55;9.37;;;3.90;;
10088;SDS011;51898;49.864;8.550;2023-09-30T12:56:58;6.90;;;4.40;;
10088;SDS011;51898;49.864;8.550;2023-09-30T12:59:59;6.87;;;4.40;;
10088;SDS011;51898;49.864;8.550;2023-09-30T13:03:01;6.60;;;4.40;;
10088;SDS011;51898;49.864;8.550;2023-09-30T13:06:04;6.40;;;4.00;;
10088;SDS011;51898;49.864;8.550;2023-09-30T13:09:06;9.50;;;4.27;;
10088;SDS011;51898;49.864;8.550;2023-09-30T13:12:09;6.30;;;4.10;;
10088;SDS011;51898;49.864;8.550;2023-09-30T13:15:11;5.70;;;4.03;;
10088;SDS011;51898;49.864;8.550;2023-09-30T13:18:15;7.80;;;4.47;;
10088;SDS011;51898;49.864;8.550;2023-09-30T13:21:17;7.03;;;4.70;;
10088;SDS011;51898;49.864;8.550;2023-09-30T13:24:19;11.23;;;4.60;;
10088;SDS011;51898;49.864;8.550;2023-09-30T13:27:21;6.57;;;4.20;;
10088;SDS011;51898;49.864;8.550;2023-09-30T13:30:23;7.07;;;4.30;;
10088;SDS011;51898;49.864;8.550;2023-09-30T13:33:24;7.60;;;4.40;;
10088;SDS011;51898;49.864;8.550;2023-09-30T13:36:26;6.70;;;4.90;;
10088;SDS011;51898;49.864;8.550;2023-09-30T13:39:28;6.13;;;5.00;;
10088;SDS011;51898;49.864;8.550;2023-09-30T13:42:30;6.63;;;4.23;;
10088;SDS011;51898;49.864;8.550;2023-09-30T13:45:32;6.83;;;4.53;;
10088;SDS011;51898;49.864;8.550;2023-09-30T13:48:35;7.47;;;4.50;;
10088;SDS011;51898;49.864;8.550;2023-09-30T13:51:38;4.80;;;4.30;;
10088;SDS011;51898;49.864;8.550;2023-09-30T13:54:40;5.53;;;3.93;;
10088;SDS011;51898;49.864;8.550;2023-09-30T13:57:42;8.00;;;4.60;;
10088;SDS011;51898;49.864;8.550;2023-09-30T14:00:47;5.50;;;4.20;;
10088;SDS011;51898;49.864;8.550;2023-09-30T14:03:49;8.53;;;4.37;;
10088;SDS011;51898;49.864;8.550;2023-09-30T14:06:56;8.87;;;4.77;;
10088;SDS011;51898;49.864;8.550;2023-09-30T14:10:01;6.23;;;4.37;;
10088;SDS011;51898;49.864;8.550;2023-09-30T14:13:06;6.90;;;4.37;;
10088;SDS011;51898;49.864;8.550;2023-09-30T14:16:08;6.00;;;4.50;;
10088;SDS011;51898;49.864;8.550;2023-09-30T14:19:10;10.53;;;4.70;;
10088;SDS011;51898;49.864;8.550;2023-09-30T14:22:14;6.30;;;4.37;;
10088;SDS011;51898;49.864;8.550;2023-09-30T14:25:16;6.47;;;4.03;;
10088;SDS011;51898;49.864;8.550;2023-09-30T14:28:18;7.80;;;4.90;;
10088;SDS011;51898;49.864;8.550;2023-09-30T14:31:21;9.00;;;5.23;;
10088;SDS011;51898;49.864;8.550;2023-09-30T14:34:23;10.83;;;5.20;;
10088;SDS011;51898;49.864;8.550;2023-09-30T14:37:25;7.47;;;4.60;;
10088;SDS011;51898;49.864;8.550;2023-09-30T14:40:27;8.23;;;5.77;;
10088;SDS011;51898;49.864;8.550;2023-09-30T14:43:28;7.40;;;5.10;;
10088;SDS011;51898;49.864;8.550;2023-09-30T14:46:30;9.27;;;5.57;;
10088;SDS011;51898;49.864;8.550;2023-09-30T14:49:32;9.17;;;4.97;;
10088;SDS011;51898;49.864;8.550;2023-09-30T14:52:34;7.20;;;4.93;;
10088;SDS011;51898;49.864;8.550;2023-09-30T14:55:36;9.30;;;4.73;;
10088;SDS011;51898;49.864;8.550;2023-09-30T14:58:38;7.03;;;4.60;;
10088;SDS011;51898;49.864;8.550;2023-09-30T15:01:39;8.33;;;5.03;;
10088;SDS011;51898;49.864;8.550;2023-09-30T15:04:41;10.10;;;5.23;;
10088;SDS011;51898;49.864;8.550;2023-09-30T15:07:43;12.03;;;5.23;;
10088;SDS011;51898;49.864;8.550;2023-09-30T15:10:45;8.90;;;5.67;;
10088;SDS011;51898;49.864;8.550;2023-09-30T15:13:47;8.70;;;5.30;;
10088;SDS011;51898;49.864;8.550;2023-09-30T15:16:49;8.17;;;5.27;;
10088;SDS011;51898;49.864;8.550;2023-09-30T15:19:51;7.67;;;4.53;;
10088;SDS011;51898;49.864;8.550;2023-09-30T15:22:53;7.43;;;4.47;;
10088;SDS011;51898;49.864;8.550;2023-09-30T15:25:55;14.07;;;9.20;;
10088;SDS011;51898;49.864;8.550;2023-09-30T15:28:57;11.40;;;5.10;;
10088;SDS011;51898;49.864;8.550;2023-09-30T15:31:59;6.10;;;5.00;;
10088;SDS011;51898;49.864;8.550;2023-09-30T15:35:04;6.73;;;4.80;;
10088;SDS011;51898;49.864;8.550;2023-09-30T15:38:07;8.27;;;4.87;;
10088;SDS011;51898;49.864;8.550;2023-09-30T15:41:08;6.67;;;5.00;;
10088;SDS011;51898;49.864;8.550;2023-09-30T15:44:13;8.57;;;5.40;;
10088;SDS011;51898;49.864;8.550;2023-09-30T15:47:15;6.27;;;4.50;;
10088;SDS011;51898;49.864;8.550;2023-09-30T15:50:17;6.20;;;4.40;;
10088;SDS011;51898;49.864;8.550;2023-09-30T15:53:19;10.90;;;5.03;;
10088;SDS011;51898;49.864;8.550;2023-09-30T15:56:20;6.83;;;4.70;;
10088;SDS011;51898;49.864;8.550;2023-09-30T15:59:22;6.87;;;5.00;;
10088;SDS011;51898;49.864;8.550;2023-09-30T16:02:24;9.67;;;4.30;;
10088;SDS011;51898;49.864;8.550;2023-09-30T16:05:26;9.90;;;4.77;;
10088;SDS011;51898;49.864;8.550;2023-09-30T16:08:27;6.27;;;4.40;;
10088;SDS011;51898;49.864;8.550;2023-09-30T16:11:29;8.83;;;4.83;;
10088;SDS011;51898;49.864;8.550;2023-09-30T16:14:31;9.93;;;5.20;;
10088;SDS011;51898;49.864;8.550;2023-09-30T16:17:32;7.03;;;4.27;;
10088;SDS011;51898;49.864;8.550;2023-09-30T16:20:34;10.50;;;5.50;;
10088;SDS011;51898;49.864;8.550;2023-09-30T16:23:36;10.67;;;5.23;;
10088;SDS011;51898;49.864;8.550;2023-09-30T16:26:38;8.47;;;4.63;;
10088;SDS011;51898;49.864;8.550;2023-09-30T16:29:40;11.43;;;4.53;;
10088;SDS011;51898;49.864;8.550;2023-09-30T16:32:42;7.90;;;4.50;;
10088;SDS011;51898;49.864;8.550;2023-09-30T16:35:44;10.10;;;4.40;;
10088;SDS011;51898;49.864;8.550;2023-09-30T16:38:51;6.17;;;4.17;;
10088;SDS011;51898;49.864;8.550;2023-09-30T16:41:53;5.10;;;4.20;;
10088;SDS011;51898;49.864;8.550;2023-09-30T16:44:55;7.90;;;4.37;;
10088;SDS011;51898;49.864;8.550;2023-09-30T16:47:57;6.97;;;4.30;;
10088;SDS011;51898;49.864;8.550;2023-09-30T16:50:59;8.57;;;5.17;;
10088;SDS011;51898;49.864;8.550;2023-09-30T16:54:01;7.20;;;6.03;;
10088;SDS011;51898;49.864;8.550;2023-09-30T16:57:03;6.80;;;5.10;;
10088;SDS011;51898;49.864;8.550;2023-09-30T17:00:06;7.80;;;6.00;;
10088;SDS011;51898;49.864;8.550;2023-09-30T17:03:08;8.10;;;5.40;;
10088;SDS011;51898;49.864;8.550;2023-09-30T17:06:12;8.50;;;5.50;;
10088;SDS011;51898;49.864;8.550;2023-09-30T17:09:13;8.53;;;6.27;;
10088;SDS011;51898;49.864;8.550;2023-09-30T17:12:15;6.30;;;5.37;;
10088;SDS011;51898;49.864;8.550;2023-09-30T17:15:17;8.53;;;5.50;;
10088;SDS011;51898;49.864;8.550;2023-09-30T17:18:18;7.83;;;5.73;;
10088;SDS011;51898;49.864;8.550;2023-09-30T17:21:21;9.40;;;5.80;;
10088;SDS011;51898;49.864;8.550;2023-09-30T17:24:22;7.13;;;5.30;;
10088;SDS011;51898;49.864;8.550;2023-09-30T17:27:24;12.50;;;6.23;;
10088;SDS011;51898;49.864;8.550;2023-09-30T17:30:26;9.33;;;6.30;;
10088;SDS011;51898;49.864;8.550;2023-09-30T17:33:41;11.63;;;6.17;;
10088;SDS011;51898;49.864;8.550;2023-09-30T17:36:43;13.20;;;6.37;;
10088;SDS011;51898;49.864;8.550;2023-09-30T17:39:45;17.83;;;6.87;;
10088;SDS011;51898;49.864;8.550;2023-09-30T17:42:47;11.30;;;6.53;;
10088;SDS011;51898;49.864;8.550;2023-09-30T17:45:49;8.70;;;6.20;;
10088;SDS011;51898;49.864;8.550;2023-09-30T17:48:51;10.27;;;6.03;;
10088;SDS011;51898;49.864;8.550;2023-09-30T17:51:52;14.20;;;6.50;;
10088;SDS011;51898;49.864;8.550;2023-09-30T17:54:54;15.37;;;6.20;;
10088;SDS011;51898;49.864;8.550;2023-09-30T17:57:56;15.80;;;6.67;;
10088;SDS011;51898;49.864;8.550;2023-09-30T18:00:58;13.53;;;6.50;;
10088;SDS011;51898;49.864;8.550;2023-09-30T18:04:00;16.83;;;6.63;;
10088;SDS011;51898;49.864;8.550;2023-09-30T18:07:03;12.00;;;6.50;;
10088;SDS011;51898;49.864;8.550;2023-09-30T18:10:05;8.90;;;6.10;;
10088;SDS011;51898;49.864;8.550;2023-09-30T18:13:07;18.83;;;6.37;;
10088;SDS011;51898;49.864;8.550;2023-09-30T18:16:08;12.00;;;6.70;;
10088;SDS011;51898;49.864;8.550;2023-09-30T18:19:11;13.47;;;6.50;;
10088;SDS011;51898;49.864;8.550;2023-09-30T18:22:14;12.70;;;6.60;;